createdAt,value
2018-07-27T00:02:10.756Z,73.50
2018-07-27T00:07:07.544Z,74.30
2018-07-27T00:09:36.074Z,74.80
2018-07-27T00:12:04.660Z,74.80
2018-07-27T00:14:33.162Z,73.90
2018-07-27T00:17:01.663Z,73.40
2018-07-27T00:21:58.376Z,73.00
2018-07-27T00:24:26.939Z,74.30
2018-07-27T00:26:55.457Z,74.50
2018-07-27T00:29:24.015Z,74.20
2018-07-27T00:31:52.583Z,74.90
2018-07-27T00:34:21.110Z,75.10
2018-07-27T00:36:49.767Z,74.90
2018-07-27T00:39:18.299Z,74.50
2018-07-27T00:41:46.801Z,74.80
2018-07-27T00:44:15.479Z,74.70
2018-07-27T00:46:44.003Z,75.30
2018-07-27T00:54:08.930Z,75.10
2018-07-27T00:56:37.442Z,75.40
2018-07-27T00:59:06.000Z,76.20
2018-07-27T01:01:34.536Z,76.10
2018-07-27T01:04:03.090Z,75.90
2018-07-27T01:06:31.680Z,76.20
2018-07-27T01:09:00.172Z,76.50
2018-07-27T01:13:56.878Z,77.20
2018-07-27T01:16:25.404Z,76.80
2018-07-27T01:18:53.952Z,77.50
2018-07-27T01:21:22.507Z,77.20
2018-07-27T01:23:51.035Z,77.70
2018-07-27T01:26:19.596Z,77.60
2018-07-27T01:28:48.148Z,77.80
2018-07-27T01:31:16.678Z,78.00
2018-07-27T01:33:45.206Z,78.00
2018-07-27T01:36:13.740Z,77.50
2018-07-27T01:38:42.284Z,77.30
2018-07-27T01:41:10.810Z,78.70
2018-07-27T01:43:39.316Z,78.50
2018-07-27T01:46:07.807Z,78.50
2018-07-27T01:48:36.348Z,78.80
2018-07-27T01:56:01.294Z,80.00
2018-07-27T02:00:58.002Z,80.80
2018-07-27T02:03:26.522Z,81.30
2018-07-27T02:05:55.138Z,83.10
2018-07-27T02:08:23.601Z,82.00
2018-07-27T02:10:52.130Z,81.90
2018-07-27T02:13:20.649Z,82.00
2018-07-27T02:15:52.021Z,82.20
2018-07-27T02:18:20.506Z,82.40
2018-07-27T02:20:49.019Z,83.10
2018-07-27T02:23:17.505Z,83.30
2018-07-27T02:25:46.012Z,83.80
2018-07-27T02:28:14.527Z,84.20
2018-07-27T02:30:43.004Z,83.50
2018-07-27T02:33:11.512Z,83.60
2018-07-27T02:35:40.075Z,84.20
2018-07-27T02:38:08.618Z,84.00
2018-07-27T02:45:33.523Z,83.60
2018-07-27T02:48:02.050Z,82.90
2018-07-27T02:50:30.552Z,82.80
2018-07-27T02:52:59.055Z,82.90
2018-07-27T02:55:27.567Z,83.60
2018-07-27T02:57:56.100Z,83.70
2018-07-27T03:00:24.628Z,83.90
2018-07-27T03:02:53.124Z,82.80
2018-07-27T03:05:21.650Z,83.40
2018-07-27T03:10:18.398Z,84.50
2018-07-27T03:12:46.964Z,84.20
2018-07-27T03:15:15.529Z,84.70
2018-07-27T03:17:44.038Z,84.70
2018-07-27T03:20:12.604Z,85.30
2018-07-27T03:22:41.088Z,84.40
2018-07-27T03:25:09.646Z,85.10
2018-07-27T03:27:38.219Z,85.60
2018-07-27T03:32:35.203Z,86.00
2018-07-27T03:35:03.867Z,85.80
2018-07-27T03:37:32.404Z,85.50
2018-07-27T03:40:00.967Z,85.30
2018-07-27T03:42:29.512Z,86.60
2018-07-27T03:44:58.031Z,87.90
2018-07-27T03:49:54.755Z,88.10
2018-07-27T03:52:23.305Z,87.90
2018-07-27T03:54:51.881Z,88.00
2018-07-27T04:02:17.051Z,87.70
2018-07-27T04:04:45.563Z,87.90
2018-07-27T04:07:14.128Z,88.90
2018-07-27T04:09:42.639Z,88.50
2018-07-27T04:12:11.155Z,88.10
2018-07-27T04:14:39.692Z,87.50
2018-07-27T04:17:08.212Z,86.50
2018-07-27T04:19:36.714Z,85.80
2018-07-27T04:22:05.288Z,85.40
2018-07-27T04:24:33.808Z,85.90
2018-07-27T04:27:02.330Z,86.70
2018-07-27T04:29:30.888Z,87.50
2018-07-27T04:31:59.408Z,88.10
2018-07-27T04:34:27.910Z,88.10
2018-07-27T04:36:56.452Z,88.70
2018-07-27T04:39:24.967Z,88.80
2018-07-27T04:41:53.527Z,89.20
2018-07-27T04:44:22.080Z,90.00
2018-07-27T04:46:50.598Z,90.00
2018-07-27T04:49:19.169Z,90.70
2018-07-27T04:51:47.685Z,90.60
2018-07-27T04:54:16.207Z,90.70
2018-07-27T04:56:44.766Z,90.20
2018-07-27T04:59:13.304Z,90.30
2018-07-27T05:01:41.871Z,90.50
2018-07-27T05:04:10.408Z,90.60
2018-07-27T05:06:38.954Z,90.40
2018-07-27T05:09:13.164Z,90.80
2018-07-27T05:11:42.284Z,90.80
2018-07-27T05:14:10.778Z,90.80
2018-07-27T05:16:39.307Z,91.00
2018-07-27T05:19:07.830Z,90.70
2018-07-27T05:21:36.406Z,90.70
2018-07-27T05:24:04.970Z,91.00
2018-07-27T05:26:33.526Z,90.90
2018-07-27T05:29:02.047Z,90.70
2018-07-27T05:31:30.801Z,90.10
2018-07-27T05:33:59.445Z,90.90
2018-07-27T05:36:28.042Z,91.30
2018-07-27T05:38:56.649Z,91.40
2018-07-27T05:41:25.235Z,91.40
2018-07-27T05:46:21.959Z,91.70
2018-07-27T05:48:50.523Z,91.80
2018-07-27T05:51:19.062Z,91.70
2018-07-27T05:53:47.589Z,91.80
2018-07-27T05:56:16.135Z,92.20
2018-07-27T05:58:44.649Z,92.90
2018-07-27T06:03:41.384Z,93.60
2018-07-27T06:06:09.974Z,91.90
2018-07-27T06:08:38.644Z,90.90
2018-07-27T06:11:07.430Z,92.20
2018-07-27T06:13:35.964Z,90.40
2018-07-27T06:16:04.528Z,88.00
2018-07-27T06:18:33.097Z,84.10
2018-07-27T06:21:01.750Z,81.20
2018-07-27T06:23:30.272Z,82.40
2018-07-27T06:25:58.807Z,83.70
2018-07-27T06:30:55.633Z,81.30
2018-07-27T06:33:24.247Z,81.50
2018-07-27T06:35:52.804Z,80.20
2018-07-27T06:38:21.358Z,80.80
2018-07-27T06:40:49.910Z,79.10
2018-07-27T06:43:18.490Z,77.80
2018-07-27T06:45:47.240Z,77.40
2018-07-27T06:48:17.794Z,75.70
2018-07-27T06:50:47.582Z,76.50
2018-07-27T06:53:16.201Z,74.40
2018-07-27T06:55:45.228Z,76.20
2018-07-27T06:58:13.788Z,72.80
2018-07-27T07:00:42.319Z,72.60
2018-07-27T07:03:11.119Z,74.90
2018-07-27T07:05:39.657Z,74.90
2018-07-27T07:08:08.218Z,72.70
2018-07-27T07:10:36.775Z,67.40
2018-07-27T07:13:05.346Z,73.50
2018-07-27T07:15:33.914Z,69.10
2018-07-27T07:18:02.455Z,72.80
2018-07-27T07:20:31.031Z,66.90
2018-07-27T07:22:59.572Z,66.10
2018-07-27T07:25:28.177Z,61.60
2018-07-27T07:27:56.697Z,66.00
2018-07-27T07:30:25.242Z,66.60
2018-07-27T07:32:53.810Z,65.10
2018-07-27T07:35:22.372Z,64.40
2018-07-27T07:37:50.934Z,61.50
2018-07-27T07:40:19.492Z,61.40
2018-07-27T07:42:48.110Z,60.60
2018-07-27T07:45:16.679Z,60.20
2018-07-27T07:47:45.190Z,58.80
2018-07-27T07:50:13.690Z,56.80
2018-07-27T07:52:42.286Z,57.90
2018-07-27T07:55:10.894Z,59.40
2018-07-27T07:57:39.428Z,54.40
2018-07-27T08:00:08.788Z,57.60
2018-07-27T08:02:37.403Z,60.20
2018-07-27T08:05:06.007Z,58.60
2018-07-27T08:07:34.504Z,59.80
2018-07-27T08:10:03.095Z,58.10
2018-07-27T08:12:31.607Z,56.50
2018-07-27T08:15:00.144Z,54.30
2018-07-27T08:17:28.665Z,52.90
2018-07-27T08:19:57.202Z,53.40
2018-07-27T08:22:25.721Z,53.80
2018-07-27T08:24:54.253Z,54.50
2018-07-27T08:27:22.780Z,54.50
2018-07-27T08:29:51.289Z,55.10
2018-07-27T08:32:19.797Z,54.30
2018-07-27T08:34:48.405Z,58.00
2018-07-27T08:37:16.951Z,55.90
2018-07-27T08:39:45.464Z,55.40
2018-07-27T08:42:14.012Z,54.80
2018-07-27T08:44:43.015Z,53.80
2018-07-27T08:47:11.599Z,52.50
2018-07-27T08:49:40.113Z,51.00
2018-07-27T08:52:08.659Z,53.40
2018-07-27T08:54:37.150Z,53.50
2018-07-27T08:59:33.950Z,50.80
2018-07-27T09:02:02.481Z,53.60
2018-07-27T09:04:31.058Z,50.80
2018-07-27T09:06:59.598Z,50.00
2018-07-27T09:09:28.159Z,49.50
2018-07-27T09:14:24.936Z,49.80
2018-07-27T09:16:53.472Z,48.60
2018-07-27T09:19:22.020Z,47.90
2018-07-27T09:21:50.553Z,46.10
2018-07-27T09:24:19.277Z,49.20
2018-07-27T09:26:47.696Z,48.90
2018-07-27T09:29:16.264Z,47.90
2018-07-27T09:31:44.834Z,47.70
2018-07-27T09:34:13.405Z,47.10
2018-07-27T09:36:41.969Z,51.90
2018-07-27T09:39:11.386Z,49.00
2018-07-27T09:41:39.967Z,48.00
2018-07-27T09:44:08.636Z,47.20
2018-07-27T09:46:37.201Z,47.90
2018-07-27T09:49:05.792Z,52.20
2018-07-27T09:51:34.357Z,49.40
2018-07-27T09:54:02.857Z,48.50
2018-07-27T09:56:31.414Z,48.20
2018-07-27T09:58:59.956Z,48.30
2018-07-27T10:01:29.383Z,47.20
2018-07-27T10:03:57.951Z,47.90
2018-07-27T10:06:26.456Z,47.70
2018-07-27T10:08:55.013Z,48.10
2018-07-27T10:11:23.577Z,48.70
2018-07-27T10:16:20.258Z,47.30
2018-07-27T10:18:48.775Z,47.70
2018-07-27T10:21:17.344Z,48.40
2018-07-27T10:23:45.911Z,48.50
2018-07-27T10:26:14.482Z,48.00
2018-07-27T10:28:42.990Z,47.40
2018-07-27T10:31:11.564Z,47.90
2018-07-27T10:33:40.096Z,47.70
2018-07-27T10:36:08.690Z,47.50
2018-07-27T10:38:37.206Z,47.40
2018-07-27T10:41:05.822Z,47.40
2018-07-27T10:43:34.373Z,46.30
2018-07-27T10:46:02.919Z,47.00
2018-07-27T10:48:31.479Z,46.30
2018-07-27T10:53:28.217Z,47.90
2018-07-27T10:55:56.975Z,48.00
2018-07-27T10:58:25.510Z,47.60
2018-07-27T11:00:54.015Z,47.60
2018-07-27T11:03:22.524Z,49.70
2018-07-27T11:05:51.080Z,47.00
2018-07-27T11:10:47.835Z,46.20
2018-07-27T11:15:44.580Z,49.70
2018-07-27T11:18:13.124Z,44.20
2018-07-27T11:20:41.687Z,48.80
2018-07-27T11:23:10.226Z,43.80
2018-07-27T11:25:38.820Z,41.20
2018-07-27T11:28:07.340Z,43.70
2018-07-27T11:33:06.936Z,39.10
2018-07-27T11:35:35.520Z,37.50
2018-07-27T11:38:04.107Z,37.20
2018-07-27T11:40:32.620Z,36.90
2018-07-27T11:43:01.196Z,36.90
2018-07-27T11:45:29.730Z,36.00
2018-07-27T11:47:58.284Z,38.50
2018-07-27T11:50:26.847Z,36.00
2018-07-27T11:52:55.371Z,37.20
2018-07-27T11:55:23.928Z,36.60
2018-07-27T11:57:52.453Z,36.20
2018-07-27T12:00:21.056Z,36.80
2018-07-27T12:02:49.555Z,38.80
2018-07-27T12:05:18.047Z,37.10
2018-07-27T12:07:46.595Z,36.10
2018-07-27T12:10:15.167Z,35.40
2018-07-27T12:12:43.690Z,36.50
2018-07-27T12:15:12.560Z,36.00
2018-07-27T12:17:40.851Z,35.80
2018-07-27T12:22:37.600Z,35.20
2018-07-27T12:25:06.125Z,35.70
2018-07-27T12:27:34.766Z,35.90
2018-07-27T12:30:03.287Z,34.50
2018-07-27T12:32:31.829Z,36.00
2018-07-27T12:35:00.405Z,34.10
2018-07-27T12:37:28.928Z,35.00
2018-07-27T12:42:25.615Z,34.20
2018-07-27T12:44:54.204Z,36.00
2018-07-27T12:47:22.698Z,33.30
2018-07-27T12:49:51.225Z,36.10
2018-07-27T12:52:19.793Z,33.70
2018-07-27T12:54:48.321Z,33.10
2018-07-27T12:57:16.872Z,34.90
2018-07-27T12:59:45.448Z,35.40
2018-07-27T13:02:13.954Z,33.30
2018-07-27T13:04:42.487Z,33.90
2018-07-27T13:09:39.292Z,33.20
2018-07-27T13:12:07.855Z,33.30
2018-07-27T13:14:36.361Z,33.10
2018-07-27T13:17:04.928Z,35.10
2018-07-27T13:19:33.471Z,34.80
2018-07-27T13:22:02.071Z,36.10
2018-07-27T13:26:59.107Z,35.70
2018-07-27T13:29:27.645Z,36.40
2018-07-27T13:37:06.795Z,34.10
2018-07-27T13:39:36.083Z,34.70
2018-07-27T13:42:05.533Z,33.80
2018-07-27T13:44:35.263Z,34.40
2018-07-27T13:47:04.787Z,34.10
2018-07-27T13:49:33.419Z,33.20
2018-07-27T13:52:02.073Z,33.80
2018-07-27T13:54:31.786Z,35.30
2018-07-27T13:57:00.601Z,34.90
2018-07-27T13:59:29.111Z,34.60
2018-07-27T14:01:57.665Z,35.00
2018-07-27T14:04:26.251Z,33.00
2018-07-27T14:06:55.945Z,32.70
2018-07-27T14:09:24.535Z,33.00
2018-07-27T14:11:53.107Z,34.10
2018-07-27T14:14:21.682Z,34.30
2018-07-27T14:16:50.236Z,33.60
2018-07-27T14:19:19.384Z,33.00
2018-07-27T14:21:48.078Z,32.70
2018-07-27T14:24:16.637Z,33.70
2018-07-27T14:29:13.305Z,34.20
2018-07-27T14:31:41.845Z,33.10
2018-07-27T14:34:10.687Z,31.80
2018-07-27T14:36:39.378Z,33.50
2018-07-27T14:39:09.398Z,32.20
2018-07-27T14:41:38.063Z,33.40
2018-07-27T14:44:06.624Z,32.70
2018-07-27T14:46:35.507Z,32.50
2018-07-27T14:49:08.237Z,31.90
2018-07-27T14:51:36.799Z,31.80
2018-07-27T14:54:06.680Z,32.00
2018-07-27T14:56:35.196Z,32.00
2018-07-27T14:59:03.790Z,33.10
2018-07-27T15:01:32.377Z,30.10
2018-07-27T15:04:00.961Z,30.90
2018-07-27T15:06:29.495Z,30.80
2018-07-27T15:08:58.064Z,30.10
2018-07-27T15:11:26.659Z,29.90
2018-07-27T15:16:23.420Z,31.40
2018-07-27T15:21:23.179Z,31.90
2018-07-27T15:23:51.691Z,32.20
2018-07-27T15:26:20.273Z,31.50
2018-07-27T15:28:48.798Z,31.10
2018-07-27T15:31:17.326Z,30.40
2018-07-27T15:33:45.870Z,32.50
2018-07-27T15:36:14.455Z,32.00
2018-07-27T15:38:42.993Z,30.70
2018-07-27T15:41:11.539Z,32.60
2018-07-27T15:43:40.107Z,34.30
2018-07-27T15:46:08.658Z,31.70
2018-07-27T15:48:37.201Z,32.00
2018-07-27T15:51:05.765Z,32.90
2018-07-27T15:53:34.309Z,32.50
2018-07-27T15:56:02.862Z,33.60
2018-07-27T15:58:31.399Z,34.00
2018-07-27T16:00:59.972Z,34.50
2018-07-27T16:03:28.511Z,35.00
2018-07-27T16:05:57.105Z,34.70
2018-07-27T16:08:25.664Z,35.20
2018-07-27T16:10:54.174Z,35.80
2018-07-27T16:13:22.704Z,36.50
2018-07-27T16:15:51.317Z,34.60
2018-07-27T16:18:19.908Z,35.20
2018-07-27T16:20:48.483Z,35.10
2018-07-27T16:23:17.040Z,36.20
2018-07-27T16:25:45.575Z,36.30
2018-07-27T16:28:14.169Z,36.40
2018-07-27T16:30:42.772Z,35.80
2018-07-27T16:33:11.346Z,36.40
2018-07-27T16:35:39.898Z,37.80
2018-07-27T16:38:08.599Z,40.00
2018-07-27T16:40:37.458Z,40.10
2018-07-27T16:43:06.153Z,40.60
2018-07-27T16:48:03.056Z,41.30
2018-07-27T16:50:31.833Z,41.70
2018-07-27T16:53:00.874Z,41.70
2018-07-27T16:55:29.376Z,41.30
2018-07-27T16:57:57.893Z,40.80
2018-07-27T17:00:26.433Z,41.00
2018-07-27T17:02:54.969Z,41.70
2018-07-27T17:05:23.516Z,42.30
2018-07-27T17:07:52.091Z,42.80
2018-07-27T17:10:20.636Z,41.90
2018-07-27T17:12:49.241Z,42.30
2018-07-27T17:15:18.133Z,42.00
2018-07-27T17:17:46.703Z,42.80
2018-07-27T17:20:15.287Z,43.90
2018-07-27T17:25:12.081Z,42.70
2018-07-27T17:27:40.587Z,43.90
2018-07-27T17:30:09.611Z,45.40
2018-07-27T17:32:38.473Z,43.60
2018-07-27T17:35:06.996Z,44.10
2018-07-27T17:37:36.155Z,42.30
2018-07-27T17:40:05.377Z,42.60
2018-07-27T17:42:33.931Z,42.90
2018-07-27T17:45:02.514Z,43.80
2018-07-27T17:47:31.066Z,43.30
2018-07-27T17:49:59.660Z,42.20
2018-07-27T17:52:28.209Z,43.80
2018-07-27T17:54:56.809Z,42.00
2018-07-27T17:57:25.389Z,42.00
2018-07-27T17:59:53.885Z,41.20
2018-07-27T18:02:22.436Z,43.80
2018-07-27T18:04:51.022Z,44.10
2018-07-27T18:07:19.669Z,43.60
2018-07-27T18:09:48.256Z,43.30
2018-07-27T18:14:45.047Z,43.30
2018-07-27T18:17:13.595Z,43.50
2018-07-27T18:19:42.175Z,44.50
2018-07-27T18:22:11.062Z,44.60
2018-07-27T18:24:39.652Z,44.90
2018-07-27T18:27:08.257Z,44.80
2018-07-27T18:29:37.100Z,44.90
2018-07-27T18:32:05.678Z,44.90
2018-07-27T18:34:34.262Z,44.90
2018-07-27T18:37:02.848Z,47.60
2018-07-27T18:39:31.395Z,46.20
2018-07-27T18:41:59.931Z,46.50
2018-07-27T18:44:28.593Z,47.30
2018-07-27T18:46:57.135Z,47.40
2018-07-27T18:49:25.685Z,46.80
2018-07-27T18:51:54.264Z,48.80
2018-07-27T18:54:22.823Z,49.40
2018-07-27T18:56:51.433Z,49.20
2018-07-27T19:01:48.189Z,49.80
2018-07-27T19:06:44.928Z,51.50
2018-07-27T19:09:14.107Z,51.60
2018-07-27T19:11:42.664Z,51.70
2018-07-27T19:14:11.229Z,52.30
2018-07-27T19:16:39.798Z,52.00
2018-07-27T19:19:08.665Z,51.70
2018-07-27T19:21:37.211Z,51.70
2018-07-27T19:26:33.891Z,52.30
2018-07-27T19:29:02.454Z,52.70
2018-07-27T19:31:30.987Z,51.60
2018-07-27T19:33:59.497Z,51.30
2018-07-27T19:36:28.044Z,51.50
2018-07-27T19:38:56.601Z,51.00
2018-07-27T19:41:25.116Z,51.00
2018-07-27T19:43:53.725Z,50.50
2018-07-27T19:46:22.332Z,51.50
2018-07-27T19:48:50.875Z,52.80
2018-07-27T19:51:19.408Z,52.90
2018-07-27T19:53:47.976Z,54.50
2018-07-27T19:56:16.574Z,54.10
2018-07-27T19:58:45.128Z,55.30
2018-07-27T20:01:13.656Z,54.70
2018-07-27T20:03:42.240Z,54.50
2018-07-27T20:06:10.779Z,54.40
2018-07-27T20:08:39.346Z,54.10
2018-07-27T20:11:07.874Z,53.80
2018-07-27T20:13:36.465Z,53.40
2018-07-27T20:16:05.081Z,53.30
2018-07-27T20:18:33.625Z,54.50
2018-07-27T20:21:02.174Z,55.20
2018-07-27T20:23:30.708Z,55.20
2018-07-27T20:25:59.259Z,55.90
2018-07-27T20:28:27.782Z,55.80
2018-07-27T20:30:56.343Z,56.20
2018-07-27T20:35:53.122Z,56.40
2018-07-27T20:38:21.703Z,56.10
2018-07-27T20:40:50.237Z,57.70
2018-07-27T20:43:18.836Z,57.40
2018-07-27T20:45:47.399Z,57.20
2018-07-27T20:48:15.921Z,57.20
2018-07-27T20:50:44.463Z,56.40
2018-07-27T20:53:13.027Z,56.10
2018-07-27T20:58:09.899Z,57.20
2018-07-27T21:00:38.436Z,56.70
2018-07-27T21:03:06.999Z,58.00
2018-07-27T21:05:35.516Z,56.90
2018-07-27T21:08:04.085Z,57.60
2018-07-27T21:10:32.664Z,57.30
2018-07-27T21:13:01.185Z,57.60
2018-07-27T21:15:29.708Z,58.50
2018-07-27T21:17:59.139Z,58.00
2018-07-27T21:20:27.696Z,58.00
2018-07-27T21:25:24.398Z,57.60
2018-07-27T21:27:52.906Z,57.90
2018-07-27T21:30:21.497Z,58.80
2018-07-27T21:32:50.049Z,58.90
2018-07-27T21:35:18.618Z,58.90
2018-07-27T21:40:15.318Z,59.40
2018-07-27T21:42:43.844Z,59.90
2018-07-27T21:45:12.436Z,59.30
2018-07-27T21:50:09.231Z,60.60
2018-07-27T21:52:38.163Z,60.90
2018-07-27T21:55:06.711Z,62.00
2018-07-27T21:57:35.220Z,62.30
2018-07-27T22:00:03.895Z,61.60
2018-07-27T22:02:32.416Z,61.40
2018-07-27T22:05:00.977Z,62.40
2018-07-27T22:07:29.548Z,63.70
2018-07-27T22:09:58.084Z,62.30
2018-07-27T22:12:26.734Z,63.20
2018-07-27T22:14:55.273Z,63.10
2018-07-27T22:17:23.829Z,63.40
2018-07-27T22:19:52.697Z,63.40
2018-07-27T22:22:21.233Z,63.40
2018-07-27T22:24:49.719Z,63.80
2018-07-27T22:27:18.304Z,63.10
2018-07-27T22:29:46.851Z,62.50
2018-07-27T22:32:15.380Z,62.80
2018-07-27T22:34:43.915Z,64.00
2018-07-27T22:37:12.467Z,64.80
2018-07-27T22:39:41.027Z,65.90
2018-07-27T22:42:09.605Z,65.30
2018-07-27T22:44:38.141Z,65.40
2018-07-27T22:49:34.844Z,64.80
2018-07-27T22:52:03.420Z,64.50
2018-07-27T22:54:31.970Z,65.30
2018-07-27T22:57:00.480Z,65.20
2018-07-27T22:59:29.032Z,65.40
2018-07-27T23:01:57.562Z,65.60
2018-07-27T23:04:26.087Z,66.10
2018-07-27T23:06:54.620Z,65.60
2018-07-27T23:09:23.152Z,66.40
2018-07-27T23:11:51.657Z,66.60
2018-07-27T23:14:20.196Z,65.60
2018-07-27T23:16:48.702Z,65.60
2018-07-27T23:19:17.284Z,64.80
2018-07-27T23:21:45.863Z,65.60
2018-07-27T23:24:14.412Z,65.60
2018-07-27T23:26:42.950Z,66.00
2018-07-27T23:29:11.479Z,66.30
2018-07-27T23:31:39.993Z,66.10
2018-07-27T23:34:08.509Z,65.50
2018-07-27T23:36:37.062Z,65.00
2018-07-27T23:46:32.500Z,66.80
2018-07-27T23:49:01.064Z,66.70
2018-07-27T23:51:29.627Z,67.10
2018-07-27T23:53:58.161Z,68.00
2018-07-27T23:56:26.713Z,68.90
2018-07-27T23:58:55.267Z,68.60
